createdAt,value
2022-08-03T00:00:57.787Z,100.00
2022-08-03T00:05:00.876Z,100.00
2022-08-03T00:09:06.114Z,100.00
2022-08-03T00:13:09.326Z,100.00
2022-08-03T00:17:12.488Z,100.00
2022-08-03T00:21:15.728Z,100.00
2022-08-03T00:25:20.380Z,100.00
2022-08-03T00:29:23.484Z,100.00
2022-08-03T00:33:26.540Z,100.00
2022-08-03T00:37:40.962Z,100.00
2022-08-03T00:41:46.249Z,100.00
2022-08-03T00:45:51.016Z,100.00
2022-08-03T00:49:54.147Z,100.00
2022-08-03T00:53:57.186Z,100.00
2022-08-03T00:58:05.168Z,100.00
2022-08-03T01:02:08.205Z,100.00
2022-08-03T01:06:18.168Z,100.00
2022-08-03T01:10:29.669Z,100.00
2022-08-03T01:14:40.233Z,100.00
2022-08-03T01:18:48.755Z,100.00
2022-08-03T01:23:24.342Z,100.00
2022-08-03T01:27:48.047Z,100.00
2022-08-03T01:32:53.391Z,100.00
2022-08-03T01:36:25.549Z,100.00
2022-08-03T01:40:29.594Z,100.00
2022-08-03T01:44:38.337Z,100.00
2022-08-03T01:48:44.653Z,100.00
2022-08-03T01:52:50.144Z,100.00
2022-08-03T01:56:54.278Z,100.00
2022-08-03T02:00:59.598Z,100.00
2022-08-03T02:05:11.058Z,100.00
2022-08-03T02:09:16.036Z,100.00
2022-08-03T02:13:20.675Z,100.00
2022-08-03T02:17:39.779Z,100.00
2022-08-03T02:21:56.316Z,100.00
2022-08-03T02:26:05.985Z,100.00
2022-08-03T02:30:11.142Z,100.00
2022-08-03T02:34:15.955Z,100.00
2022-08-03T02:38:24.780Z,100.00
2022-08-03T02:42:29.639Z,100.00
2022-08-03T02:52:29.121Z,100.00
2022-08-03T02:56:35.632Z,100.00
2022-08-03T03:00:40.392Z,100.00
2022-08-03T03:04:59.733Z,100.00
2022-08-03T03:09:08.143Z,100.00
2022-08-03T03:13:14.888Z,100.00
2022-08-03T03:17:18.609Z,100.00
2022-08-03T03:21:22.946Z,100.00
2022-08-03T03:25:26.232Z,100.00
2022-08-03T03:29:31.123Z,100.00
2022-08-03T03:33:42.668Z,100.00
2022-08-03T03:37:45.734Z,100.00
2022-08-03T03:41:48.806Z,100.00
2022-08-03T03:45:55.784Z,100.00
2022-08-03T03:49:59.791Z,100.00
2022-08-03T03:54:04.548Z,100.00
2022-08-03T03:58:08.699Z,100.00
2022-08-03T04:02:13.936Z,100.00
2022-08-03T04:06:35.238Z,100.00
2022-08-03T04:11:02.027Z,100.00
2022-08-03T04:15:07.378Z,100.00
2022-08-03T04:19:23.156Z,100.00
2022-08-03T04:23:31.413Z,100.00
2022-08-03T04:27:38.083Z,100.00
2022-08-03T04:31:43.169Z,100.00
2022-08-03T04:36:01.800Z,100.00
2022-08-03T04:40:10.057Z,100.00
2022-08-03T04:44:14.927Z,100.00
2022-08-03T04:48:18.709Z,100.00
2022-08-03T04:52:23.281Z,100.00
2022-08-03T04:56:26.381Z,100.00
2022-08-03T05:00:30.329Z,100.00
2022-08-03T05:04:33.368Z,100.00
2022-08-03T05:08:46.327Z,100.00
2022-08-03T05:12:51.740Z,100.00
2022-08-03T05:29:07.868Z,100.00
2022-08-03T05:33:10.956Z,100.00
2022-08-03T05:37:14.230Z,100.00
2022-08-03T05:41:22.327Z,100.00
2022-08-03T05:45:28.513Z,100.00
2022-08-03T05:49:31.908Z,100.00
2022-08-03T05:53:36.074Z,100.00
2022-08-03T05:57:39.337Z,100.00
2022-08-03T06:01:43.814Z,100.00
2022-08-03T06:05:52.797Z,100.00
2022-08-03T06:10:36.105Z,100.00
2022-08-03T06:14:26.899Z,100.00
2022-08-03T06:18:31.335Z,100.00
2022-08-03T06:22:34.409Z,100.00
2022-08-03T06:26:37.542Z,100.00
2022-08-03T06:30:41.541Z,100.00
2022-08-03T06:34:45.903Z,100.00
2022-08-03T06:38:49.024Z,100.00
2022-08-03T06:42:52.124Z,100.00
2022-08-03T06:46:55.180Z,100.00
2022-08-03T06:50:59.683Z,100.00
2022-08-03T06:55:02.762Z,100.00
2022-08-03T06:59:05.965Z,100.00
2022-08-03T07:03:09.017Z,100.00
2022-08-03T07:07:14.014Z,100.00
2022-08-03T07:11:17.087Z,100.00
2022-08-03T07:15:38.410Z,100.00
2022-08-03T07:19:43.772Z,100.00
2022-08-03T07:23:48.120Z,100.00
2022-08-03T07:27:51.849Z,100.00
2022-08-03T07:31:54.989Z,100.00
2022-08-03T07:35:58.126Z,100.00
2022-08-03T07:40:03.592Z,100.00
2022-08-03T07:44:06.652Z,100.00
2022-08-03T07:48:12.431Z,100.00
2022-08-03T07:52:33.549Z,100.00
2022-08-03T07:56:38.155Z,100.00
2022-08-03T08:00:41.240Z,100.00
2022-08-03T08:04:44.220Z,100.00
2022-08-03T08:08:47.287Z,100.00
2022-08-03T08:12:51.865Z,100.00
2022-08-03T08:16:55.061Z,100.00
2022-08-03T08:20:58.259Z,100.00
2022-08-03T08:25:01.590Z,100.00
2022-08-03T08:29:06.762Z,99.10
2022-08-03T08:33:15.728Z,100.00
2022-08-03T08:37:26.696Z,96.93
2022-08-03T08:41:33.824Z,93.04
2022-08-03T08:45:38.921Z,93.27
2022-08-03T08:49:58.231Z,93.59
2022-08-03T08:54:09.410Z,91.95
2022-08-03T08:58:13.196Z,90.77
2022-08-03T09:02:25.852Z,92.41
2022-08-03T09:06:28.904Z,88.79
2022-08-03T09:10:31.914Z,88.00
2022-08-03T09:14:45.407Z,88.44
2022-08-03T09:19:13.786Z,92.18
2022-08-03T09:23:59.616Z,93.22
2022-08-03T09:27:44.763Z,92.68
2022-08-03T09:31:47.967Z,84.12
2022-08-03T09:35:53.996Z,91.07
2022-08-03T09:39:57.697Z,88.01
2022-08-03T09:44:00.890Z,88.40
2022-08-03T09:48:24.143Z,85.79
2022-08-03T09:52:48.316Z,85.35
2022-08-03T09:56:53.713Z,89.92
2022-08-03T10:00:59.036Z,80.65
2022-08-03T10:05:02.088Z,81.64
2022-08-03T10:09:11.864Z,78.66
2022-08-03T10:13:15.805Z,77.34
2022-08-03T10:17:19.215Z,77.55
2022-08-03T10:21:23.327Z,78.28
2022-08-03T10:25:32.886Z,75.74
2022-08-03T10:29:40.103Z,81.46
2022-08-03T10:33:51.253Z,81.58
2022-08-03T10:38:00.016Z,76.57
2022-08-03T10:42:05.447Z,79.56
2022-08-03T10:46:16.645Z,74.51
2022-08-03T10:50:20.444Z,78.52
2022-08-03T10:54:59.808Z,77.57
2022-08-03T10:59:04.499Z,72.39
2022-08-03T11:03:14.629Z,72.65
2022-08-03T11:07:23.376Z,71.17
2022-08-03T11:11:28.660Z,72.29
2022-08-03T11:15:36.089Z,69.06
2022-08-03T11:19:56.822Z,65.17
2022-08-03T11:24:04.049Z,67.11
2022-08-03T11:28:27.925Z,67.38
2022-08-03T11:32:59.567Z,67.20
2022-08-03T11:37:23.594Z,67.49
2022-08-03T11:41:44.915Z,65.06
2022-08-03T11:45:58.668Z,63.46
2022-08-03T11:50:03.065Z,61.08
2022-08-03T11:54:07.888Z,64.68
2022-08-03T11:59:10.956Z,63.67
2022-08-03T12:02:40.204Z,58.32
2022-08-03T12:06:59.481Z,58.75
2022-08-03T12:11:05.797Z,57.58
2022-08-03T12:15:09.754Z,57.88
2022-08-03T12:19:12.735Z,56.92
2022-08-03T12:23:17.509Z,53.08
2022-08-03T12:27:29.785Z,51.83
2022-08-03T12:31:32.811Z,53.54
2022-08-03T12:35:35.831Z,47.51
2022-08-03T12:40:02.178Z,49.00
2022-08-03T12:44:04.555Z,46.74
2022-08-03T12:48:11.414Z,44.75
2022-08-03T12:52:14.528Z,45.29
2022-08-03T12:56:20.008Z,46.09
2022-08-03T13:00:29.665Z,44.70
2022-08-03T13:04:35.599Z,45.42
2022-08-03T13:08:38.624Z,46.86
2022-08-03T13:12:50.233Z,44.91
2022-08-03T13:16:53.290Z,46.00
2022-08-03T13:20:56.304Z,43.78
2022-08-03T13:25:01.160Z,43.04
2022-08-03T13:29:05.469Z,43.94
2022-08-03T13:33:09.748Z,43.84
2022-08-03T13:37:13.167Z,45.88
2022-08-03T13:41:16.381Z,44.08
2022-08-03T13:45:22.015Z,45.31
2022-08-03T13:49:25.012Z,44.93
2022-08-03T13:53:28.128Z,44.10
2022-08-03T13:58:03.677Z,43.07
2022-08-03T14:01:56.188Z,43.60
2022-08-03T14:05:59.264Z,42.43
2022-08-03T14:10:02.664Z,44.17
2022-08-03T14:14:06.056Z,43.96
2022-08-03T14:18:15.498Z,43.75
2022-08-03T14:22:19.063Z,44.83
2022-08-03T14:26:22.163Z,48.94
2022-08-03T14:30:25.220Z,49.52
2022-08-03T14:34:29.568Z,49.62
2022-08-03T14:38:32.635Z,47.97
2022-08-03T14:42:35.732Z,43.78
2022-08-03T14:46:38.922Z,43.66
2022-08-03T14:50:50.351Z,44.73
2022-08-03T14:54:54.224Z,46.75
2022-08-03T14:58:57.248Z,49.78
2022-08-03T15:03:00.624Z,50.43
2022-08-03T15:07:05.140Z,49.23
2022-08-03T15:11:08.264Z,48.48
2022-08-03T15:15:11.822Z,44.63
2022-08-03T15:20:00.264Z,39.78
2022-08-03T15:23:39.168Z,42.01
2022-08-03T15:28:03.821Z,44.62
2022-08-03T15:32:09.131Z,43.70
2022-08-03T15:36:12.671Z,43.05
2022-08-03T15:40:17.154Z,43.49
2022-08-03T15:44:20.826Z,44.48
2022-08-03T15:48:26.431Z,42.20
2022-08-03T15:52:29.814Z,42.92
2022-08-03T15:56:34.276Z,47.38
2022-08-03T16:00:37.458Z,47.96
2022-08-03T16:04:40.511Z,49.09
2022-08-03T16:08:43.615Z,46.17
2022-08-03T16:12:48.751Z,45.69
2022-08-03T16:16:51.755Z,46.46
2022-08-03T16:20:54.816Z,46.93
2022-08-03T16:24:59.299Z,47.36
2022-08-03T16:29:03.808Z,46.25
2022-08-03T16:33:08.161Z,45.56
2022-08-03T16:37:37.055Z,45.68
2022-08-03T16:41:53.574Z,45.57
2022-08-03T16:45:59.075Z,46.69
2022-08-03T16:50:05.775Z,44.79
2022-08-03T16:54:14.068Z,46.17
2022-08-03T16:58:19.494Z,49.64
2022-08-03T17:02:48.250Z,46.07
2022-08-03T17:06:51.419Z,50.97
2022-08-03T17:10:54.480Z,49.54
2022-08-03T17:14:57.527Z,51.80
2022-08-03T17:19:06.572Z,52.33
2022-08-03T17:23:34.869Z,50.98
2022-08-03T17:28:48.702Z,51.33
2022-08-03T17:32:07.804Z,51.33
2022-08-03T17:36:16.305Z,51.19
2022-08-03T17:40:23.114Z,50.35
2022-08-03T17:44:28.873Z,52.29
2022-08-03T17:48:41.551Z,50.92
2022-08-03T17:52:50.109Z,59.70
2022-08-03T17:57:22.707Z,55.54
2022-08-03T18:02:02.007Z,59.02
2022-08-03T18:06:12.159Z,59.30
2022-08-03T18:10:22.713Z,60.27
2022-08-03T18:14:37.512Z,60.07
2022-08-03T18:18:43.348Z,66.30
2022-08-03T18:22:47.673Z,69.31
2022-08-03T18:26:52.611Z,72.63
2022-08-03T18:30:55.941Z,77.51
2022-08-03T18:35:01.758Z,82.64
2022-08-03T18:39:06.179Z,83.87
2022-08-03T18:43:11.200Z,84.66
2022-08-03T18:47:26.823Z,88.32
2022-08-03T18:51:54.966Z,92.64
2022-08-03T18:56:08.931Z,90.90
2022-08-03T19:00:23.904Z,92.46
2022-08-03T19:04:33.145Z,93.61
2022-08-03T19:08:47.847Z,96.13
2022-08-03T19:12:54.329Z,100.00
2022-08-03T19:17:06.841Z,100.00
2022-08-03T19:21:12.718Z,100.00
2022-08-03T19:25:19.444Z,100.00
2022-08-03T19:29:24.374Z,100.00
2022-08-03T19:33:55.848Z,100.00
2022-08-03T19:38:00.415Z,100.00
2022-08-03T19:42:12.173Z,100.00
2022-08-03T19:46:27.694Z,100.00
2022-08-03T19:50:37.361Z,100.00
2022-08-03T19:54:54.671Z,100.00
2022-08-03T19:59:00.094Z,100.00
2022-08-03T20:03:03.627Z,100.00
2022-08-03T20:07:08.009Z,100.00
2022-08-03T20:11:12.304Z,100.00
2022-08-03T20:15:18.386Z,100.00
2022-08-03T20:19:40.889Z,100.00
2022-08-03T20:24:02.888Z,100.00
2022-08-03T20:28:13.980Z,100.00
2022-08-03T20:32:19.118Z,100.00
2022-08-03T20:36:27.589Z,100.00
2022-08-03T20:40:31.939Z,100.00
2022-08-03T20:44:35.003Z,100.00
2022-08-03T20:48:48.737Z,100.00
2022-08-03T20:52:51.995Z,100.00
2022-08-03T20:56:57.493Z,100.00
2022-08-03T21:01:01.996Z,100.00
2022-08-03T21:05:08.601Z,100.00
2022-08-03T21:09:18.462Z,100.00
2022-08-03T21:13:27.430Z,100.00
2022-08-03T21:17:41.599Z,100.00
2022-08-03T21:21:47.936Z,100.00
2022-08-03T21:25:52.209Z,100.00
2022-08-03T21:29:56.959Z,100.00
2022-08-03T21:34:03.180Z,100.00
2022-08-03T21:38:29.520Z,100.00
2022-08-03T21:42:33.454Z,100.00
2022-08-03T21:46:40.152Z,100.00
2022-08-03T21:50:44.275Z,100.00
2022-08-03T21:54:50.781Z,100.00
2022-08-03T21:58:56.301Z,100.00
2022-08-03T22:03:15.361Z,100.00
2022-08-03T22:07:23.449Z,100.00
2022-08-03T22:11:27.644Z,100.00
2022-08-03T22:15:31.634Z,100.00
2022-08-03T22:19:36.068Z,100.00
2022-08-03T22:23:42.051Z,100.00
2022-08-03T22:27:47.207Z,100.00
2022-08-03T22:31:58.340Z,100.00
2022-08-03T22:36:05.449Z,100.00
2022-08-03T22:40:11.241Z,100.00
2022-08-03T22:44:14.414Z,100.00
2022-08-03T22:48:18.253Z,100.00
2022-08-03T22:52:24.077Z,100.00
2022-08-03T22:56:27.191Z,100.00
2022-08-03T23:00:30.194Z,100.00
2022-08-03T23:04:35.043Z,100.00
2022-08-03T23:08:42.399Z,100.00
2022-08-03T23:12:49.424Z,100.00
2022-08-03T23:16:55.149Z,100.00
2022-08-03T23:21:01.639Z,100.00
2022-08-03T23:25:16.465Z,100.00
2022-08-03T23:29:21.302Z,100.00
2022-08-03T23:33:24.608Z,100.00
2022-08-03T23:37:27.962Z,100.00
2022-08-03T23:41:34.051Z,100.00
2022-08-03T23:45:37.650Z,100.00
2022-08-03T23:49:40.995Z,100.00
2022-08-03T23:53:52.659Z,100.00
2022-08-03T23:58:05.089Z,100.00
